createdAt,value
2023-05-01T01:05:13.013Z,73.73
2023-05-01T01:10:36.431Z,73.12
2023-05-01T02:26:05.272Z,74.78
2023-05-01T02:43:17.524Z,74.94
2023-05-01T04:50:06.511Z,68.64
2023-05-01T04:55:10.161Z,58.77
2023-05-01T05:00:19.388Z,50.86
2023-05-01T05:05:32.651Z,45.92
2023-05-01T05:10:43.443Z,48.04
2023-05-01T05:15:58.936Z,46.80
2023-05-01T05:21:09.147Z,46.34
2023-05-01T05:26:13.695Z,43.96
2023-05-01T05:31:24.691Z,44.26
2023-05-01T05:36:28.949Z,43.34
2023-05-01T05:41:32.600Z,43.02
2023-05-01T05:46:37.492Z,42.58
2023-05-01T05:51:41.673Z,42.08
2023-05-01T05:56:45.672Z,41.14
2023-05-01T06:01:49.305Z,41.17
2023-05-01T06:06:52.828Z,40.21
2023-05-01T06:12:05.901Z,38.08
2023-05-01T06:17:09.154Z,37.58
2023-05-01T06:22:12.343Z,37.32
2023-05-01T06:27:22.636Z,35.30
2023-05-01T06:32:26.051Z,33.86
2023-05-01T06:37:30.366Z,32.75
2023-05-01T06:42:33.581Z,32.45
2023-05-01T06:47:42.559Z,32.16
2023-05-01T06:52:46.334Z,32.10
2023-05-01T06:57:49.649Z,32.04
2023-05-01T07:02:53.925Z,32.99
2023-05-01T07:08:01.341Z,32.54
2023-05-01T07:13:05.224Z,32.22
2023-05-01T07:18:08.741Z,31.02
2023-05-01T07:23:12.122Z,31.20
2023-05-01T07:28:18.264Z,30.18
2023-05-01T07:33:21.674Z,32.20
2023-05-01T07:38:25.085Z,31.34
2023-05-01T07:43:28.283Z,30.81
2023-05-01T07:48:32.112Z,29.74
2023-05-01T07:53:35.852Z,29.74
2023-05-01T07:58:42.010Z,29.59
2023-05-01T08:03:48.022Z,29.30
2023-05-01T08:08:53.761Z,29.54
2023-05-01T08:13:57.007Z,31.57
2023-05-01T08:19:00.271Z,30.59
2023-05-01T08:24:03.916Z,31.86
2023-05-01T08:29:07.290Z,32.61
2023-05-01T08:34:10.664Z,32.16
2023-05-01T08:39:14.586Z,33.37
2023-05-01T08:44:20.689Z,33.27
2023-05-01T08:49:24.849Z,33.78
2023-05-01T08:54:28.246Z,32.63
2023-05-01T08:59:34.564Z,32.83
2023-05-01T09:04:38.512Z,32.39
2023-05-01T09:09:41.656Z,31.06
2023-05-01T09:14:45.737Z,31.58
2023-05-01T09:19:49.996Z,32.01
2023-05-01T09:24:53.761Z,33.56
2023-05-01T09:29:57.379Z,32.85
2023-05-01T09:35:13.717Z,34.36
2023-05-01T09:40:17.053Z,32.16
2023-05-01T09:45:20.617Z,32.83
2023-05-01T09:50:32.474Z,32.14
2023-05-01T09:55:35.786Z,32.50
2023-05-01T10:00:51.936Z,32.81
2023-05-01T10:05:57.971Z,32.37
2023-05-01T10:11:06.072Z,33.03
2023-05-01T10:16:29.975Z,32.26
2023-05-01T10:21:34.210Z,32.98
2023-05-01T10:26:39.108Z,31.85
2023-05-01T10:31:42.805Z,31.82
2023-05-01T10:36:56.149Z,31.38
2023-05-01T10:41:59.326Z,31.22
2023-05-01T10:47:35.001Z,31.69
2023-05-01T10:53:14.686Z,31.64
2023-05-01T10:58:53.243Z,30.58
